createdAt,value
2023-03-28T00:01:07.152Z,7.80
2023-03-28T00:03:39.789Z,7.80
2023-03-28T00:06:12.901Z,7.80
2023-03-28T00:08:40.612Z,7.80
2023-03-28T00:11:18.942Z,7.70
2023-03-28T00:13:47.403Z,7.70
2023-03-28T00:16:14.457Z,7.70
2023-03-28T00:18:42.791Z,7.70
2023-03-28T00:21:25.499Z,7.60
2023-03-28T00:23:53.950Z,7.60
2023-03-28T00:26:24.730Z,7.60
2023-03-28T00:28:52.058Z,7.60
2023-03-28T00:31:19.160Z,7.50
2023-03-28T00:33:47.653Z,7.50
2023-03-28T00:36:22.908Z,7.50
2023-03-28T00:38:50.122Z,7.50
2023-03-28T00:41:18.399Z,7.50
2023-03-28T00:43:47.232Z,7.50
2023-03-28T00:46:26.808Z,7.40
2023-03-28T00:49:04.297Z,7.40
2023-03-28T00:51:33.202Z,7.40
2023-03-28T00:54:01.782Z,7.40
2023-03-28T00:56:34.418Z,7.30
2023-03-28T00:59:04.756Z,7.30
2023-03-28T01:01:31.413Z,7.30
2023-03-28T01:04:05.630Z,7.30
2023-03-28T01:06:37.030Z,7.30
2023-03-28T01:09:10.030Z,7.20
2023-03-28T01:11:39.738Z,7.30
2023-03-28T01:14:07.901Z,7.20
2023-03-28T01:16:41.343Z,7.20
2023-03-28T01:19:50.466Z,7.20
2023-03-28T01:22:56.737Z,7.10
2023-03-28T01:25:46.658Z,7.10
2023-03-28T01:28:37.532Z,7.10
2023-03-28T01:31:17.686Z,7.10
2023-03-28T01:33:53.123Z,7.00
2023-03-28T01:36:58.891Z,7.00
2023-03-28T01:39:47.134Z,7.00
2023-03-28T01:42:48.406Z,7.00
2023-03-28T01:45:22.269Z,7.00
2023-03-28T01:48:18.072Z,6.90
2023-03-28T01:50:47.503Z,6.90
2023-03-28T01:53:43.066Z,6.90
2023-03-28T01:56:31.141Z,6.90
2023-03-28T01:59:06.843Z,6.80
2023-03-28T02:01:49.510Z,6.80
2023-03-28T02:04:21.411Z,6.80
2023-03-28T02:06:50.990Z,6.80
2023-03-28T02:09:23.475Z,6.80
2023-03-28T02:11:56.886Z,6.80
2023-03-28T02:14:27.529Z,6.70
2023-03-28T02:17:00.562Z,6.70
2023-03-28T02:19:29.265Z,6.70
2023-03-28T02:22:04.677Z,6.70
2023-03-28T02:24:31.649Z,6.70
2023-03-28T02:26:58.455Z,6.70
2023-03-28T02:29:25.195Z,6.70
2023-03-28T02:31:51.904Z,6.60
2023-03-28T02:34:18.549Z,6.60
2023-03-28T02:37:02.843Z,6.60
2023-03-28T02:39:52.444Z,6.60
2023-03-28T02:42:49.886Z,6.60
2023-03-28T02:45:34.218Z,6.50
2023-03-28T02:48:12.715Z,6.50
2023-03-28T02:50:54.616Z,6.50
2023-03-28T02:53:35.567Z,6.50
2023-03-28T02:56:10.910Z,6.50
2023-03-28T02:58:51.407Z,6.40
2023-03-28T03:01:18.431Z,6.40
2023-03-28T03:03:45.941Z,6.40
2023-03-28T03:06:12.709Z,6.40
2023-03-28T03:08:39.482Z,6.40
2023-03-28T03:11:06.740Z,6.40
2023-03-28T03:13:33.334Z,6.30
2023-03-28T03:16:00.443Z,6.30
2023-03-28T03:18:27.644Z,6.30
2023-03-28T03:20:54.866Z,6.30
2023-03-28T03:23:21.619Z,6.30
2023-03-28T03:25:50.688Z,6.30
2023-03-28T03:28:17.584Z,6.30
2023-03-28T03:30:44.429Z,6.30
2023-03-28T03:33:11.354Z,6.30
2023-03-28T03:35:45.903Z,6.30
2023-03-28T03:38:13.228Z,6.20
2023-03-28T03:40:40.655Z,6.20
2023-03-28T03:43:07.501Z,6.20
2023-03-28T03:45:34.126Z,6.20
2023-03-28T03:48:01.004Z,6.20
2023-03-28T03:50:27.588Z,6.20
2023-03-28T03:52:54.225Z,6.10
2023-03-28T03:55:20.959Z,6.20
2023-03-28T03:57:47.583Z,6.10
2023-03-28T04:00:14.754Z,6.10
2023-03-28T04:02:41.501Z,6.10
2023-03-28T04:05:09.000Z,6.10
2023-03-28T04:07:36.347Z,6.10
2023-03-28T04:10:04.048Z,6.10
2023-03-28T04:12:30.826Z,6.10
2023-03-28T04:14:57.439Z,6.10
2023-03-28T04:17:29.980Z,6.10
2023-03-28T04:19:57.067Z,6.10
2023-03-28T04:22:30.046Z,6.00
2023-03-28T04:24:57.269Z,6.00
2023-03-28T04:27:26.298Z,6.00
2023-03-28T04:29:56.491Z,6.00
2023-03-28T04:32:24.437Z,6.00
2023-03-28T04:34:51.059Z,6.00
2023-03-28T04:37:18.857Z,5.90
2023-03-28T04:39:47.817Z,5.90
2023-03-28T04:42:15.285Z,5.90
2023-03-28T04:44:42.316Z,5.90
2023-03-28T04:47:11.735Z,5.90
2023-03-28T04:49:38.605Z,5.90
2023-03-28T04:52:06.419Z,5.90
2023-03-28T04:54:33.011Z,5.90
2023-03-28T04:56:59.581Z,5.90
2023-03-28T04:59:26.254Z,5.90
2023-03-28T05:01:52.967Z,5.90
2023-03-28T05:04:21.410Z,5.80
2023-03-28T05:06:49.420Z,5.80
2023-03-28T05:09:16.581Z,5.80
2023-03-28T05:11:44.476Z,5.80
2023-03-28T05:14:11.167Z,5.80
2023-03-28T05:16:37.837Z,5.80
2023-03-28T05:19:04.475Z,5.80
2023-03-28T05:21:31.080Z,5.80
2023-03-28T05:23:58.160Z,5.80
2023-03-28T05:26:24.759Z,5.80
2023-03-28T05:28:51.452Z,5.80
2023-03-28T05:31:18.069Z,5.70
2023-03-28T05:33:44.738Z,5.70
2023-03-28T05:36:13.088Z,5.70
2023-03-28T05:38:39.740Z,5.70
2023-03-28T05:41:06.738Z,5.70
2023-03-28T05:43:33.322Z,5.70
2023-03-28T05:45:59.956Z,5.70
2023-03-28T05:48:26.612Z,5.70
2023-03-28T05:50:53.246Z,5.70
2023-03-28T05:53:20.459Z,5.70
2023-03-28T05:55:47.092Z,5.70
2023-03-28T05:58:13.748Z,5.70
2023-03-28T06:00:42.618Z,5.70
2023-03-28T06:03:09.704Z,5.70
2023-03-28T06:05:43.611Z,5.70
2023-03-28T06:08:10.231Z,5.70
2023-03-28T06:10:37.264Z,5.70
2023-03-28T06:13:03.860Z,5.70
2023-03-28T06:15:30.478Z,5.70
2023-03-28T06:17:58.080Z,5.70
2023-03-28T06:20:24.858Z,5.70
2023-03-28T06:22:51.415Z,5.70
2023-03-28T06:25:18.115Z,5.70
2023-03-28T06:27:44.703Z,5.70
2023-03-28T06:30:12.059Z,5.70
2023-03-28T06:32:40.031Z,5.70
2023-03-28T06:35:07.359Z,5.70
2023-03-28T06:37:33.971Z,5.70
2023-03-28T06:40:00.801Z,5.70
2023-03-28T06:42:27.728Z,5.70
2023-03-28T06:44:54.342Z,5.70
2023-03-28T06:47:21.097Z,5.70
2023-03-28T06:49:47.694Z,5.80
2023-03-28T06:52:14.321Z,5.80
2023-03-28T06:54:40.903Z,5.80
2023-03-28T06:57:07.546Z,5.80
2023-03-28T06:59:34.336Z,5.80
2023-03-28T07:02:01.139Z,5.80
2023-03-28T07:04:27.730Z,5.80
2023-03-28T07:06:54.269Z,5.80
2023-03-28T07:09:20.843Z,5.80
2023-03-28T07:11:47.585Z,5.80
2023-03-28T07:14:14.313Z,5.80
2023-03-28T07:16:41.134Z,5.80
2023-03-28T07:19:07.972Z,5.80
2023-03-28T07:21:34.905Z,5.80
2023-03-28T07:24:01.627Z,5.90
2023-03-28T07:26:28.332Z,5.90
2023-03-28T07:28:55.947Z,5.90
2023-03-28T07:31:24.527Z,5.90
2023-03-28T07:33:51.929Z,5.90
2023-03-28T07:36:21.275Z,5.90
2023-03-28T07:38:49.531Z,5.90
2023-03-28T07:41:17.014Z,5.90
2023-03-28T07:43:44.000Z,5.90
2023-03-28T07:46:14.532Z,5.90
2023-03-28T07:48:42.002Z,5.90
2023-03-28T07:51:10.799Z,5.90
2023-03-28T07:53:38.344Z,6.00
2023-03-28T07:56:10.741Z,6.00
2023-03-28T07:58:41.468Z,6.00
2023-03-28T08:01:10.103Z,6.10
2023-03-28T08:03:37.118Z,6.10
2023-03-28T08:06:13.448Z,6.10
2023-03-28T08:08:43.723Z,6.20
2023-03-28T08:11:12.400Z,6.20
2023-03-28T08:13:39.068Z,6.30
2023-03-28T08:16:06.251Z,6.30
2023-03-28T08:18:32.909Z,6.30
2023-03-28T08:21:01.875Z,6.30
2023-03-28T08:23:29.254Z,6.40
2023-03-28T08:26:07.347Z,6.40
2023-03-28T08:28:35.981Z,6.50
2023-03-28T08:31:09.497Z,6.50
2023-03-28T08:33:36.993Z,6.50
2023-03-28T08:36:03.788Z,6.50
2023-03-28T08:38:30.462Z,6.60
2023-03-28T08:41:27.842Z,6.70
2023-03-28T08:44:18.621Z,6.70
2023-03-28T08:46:48.347Z,6.70
2023-03-28T08:49:17.888Z,6.80
2023-03-28T08:51:51.581Z,6.80
2023-03-28T08:54:27.082Z,6.80
2023-03-28T08:56:58.096Z,6.90
2023-03-28T09:00:13.092Z,6.90
2023-03-28T09:02:40.199Z,7.00
2023-03-28T09:05:22.441Z,7.00
2023-03-28T09:07:50.469Z,6.90
2023-03-28T09:10:45.388Z,7.00
2023-03-28T09:13:23.873Z,7.00
2023-03-28T09:16:08.832Z,7.00
2023-03-28T09:19:00.579Z,7.00
2023-03-28T09:21:47.453Z,7.10
2023-03-28T09:24:48.030Z,7.20
2023-03-28T09:27:17.596Z,7.30
2023-03-28T09:29:45.836Z,7.30
2023-03-28T09:32:37.352Z,7.30
2023-03-28T09:35:22.436Z,7.30
2023-03-28T09:37:54.734Z,7.40
2023-03-28T09:40:24.507Z,7.40
2023-03-28T09:43:27.961Z,7.50
2023-03-28T09:46:04.916Z,7.40
2023-03-28T09:48:36.418Z,7.40
2023-03-28T09:51:06.040Z,7.40
2023-03-28T09:53:35.560Z,7.50
2023-03-28T09:56:26.127Z,7.60
2023-03-28T09:58:56.493Z,7.60
2023-03-28T10:01:36.427Z,7.70
2023-03-28T10:04:11.160Z,7.80
2023-03-28T10:06:40.256Z,7.90
2023-03-28T10:09:15.464Z,8.00
2023-03-28T10:12:04.661Z,8.10
2023-03-28T10:14:31.258Z,8.00
2023-03-28T10:17:20.019Z,8.10
2023-03-28T10:19:48.096Z,8.10
2023-03-28T10:22:28.163Z,8.10
2023-03-28T10:24:55.696Z,8.20
2023-03-28T10:27:29.310Z,8.30
2023-03-28T10:29:57.797Z,8.40
2023-03-28T10:32:30.349Z,8.30
2023-03-28T10:35:08.587Z,8.40
2023-03-28T10:37:35.233Z,8.50
2023-03-28T10:40:22.408Z,8.50
2023-03-28T10:42:52.455Z,8.40
2023-03-28T10:45:30.508Z,8.40
2023-03-28T10:48:00.684Z,8.40
2023-03-28T10:50:36.671Z,8.40
2023-03-28T10:53:25.691Z,8.70
2023-03-28T10:56:23.765Z,8.70
2023-03-28T10:58:53.383Z,8.80
2023-03-28T11:01:22.224Z,8.70
2023-03-28T11:04:27.376Z,8.70
2023-03-28T11:07:12.609Z,8.80
2023-03-28T11:09:48.638Z,8.80
2023-03-28T11:12:55.509Z,8.80
2023-03-28T11:15:51.524Z,8.90
2023-03-28T11:18:45.957Z,9.00
2023-03-28T11:21:46.570Z,9.10
2023-03-28T11:24:32.462Z,9.20
2023-03-28T11:27:27.564Z,9.10
2023-03-28T11:30:20.441Z,9.10
2023-03-28T11:32:59.205Z,9.20
2023-03-28T11:35:34.926Z,9.30
2023-03-28T11:38:10.818Z,9.30
2023-03-28T11:40:50.530Z,9.30
2023-03-28T11:43:28.760Z,9.40
2023-03-28T11:46:03.616Z,9.50
2023-03-28T11:48:42.000Z,9.40
2023-03-28T11:51:27.467Z,9.50
2023-03-28T11:54:01.243Z,9.50
2023-03-28T11:56:43.308Z,9.40
2023-03-28T11:59:19.594Z,9.50
2023-03-28T12:01:49.227Z,9.60
2023-03-28T12:04:39.286Z,9.40
2023-03-28T12:07:11.778Z,9.50
2023-03-28T12:10:01.019Z,9.60
2023-03-28T12:12:50.921Z,9.70
2023-03-28T12:15:22.171Z,9.60
2023-03-28T12:17:58.768Z,9.60
2023-03-28T12:21:00.742Z,9.60
2023-03-28T12:23:50.265Z,9.70
2023-03-28T12:26:42.629Z,9.60
2023-03-28T12:29:21.274Z,9.70
2023-03-28T12:31:51.274Z,9.60
2023-03-28T12:34:27.082Z,9.60
2023-03-28T12:37:12.276Z,9.80
2023-03-28T12:39:54.959Z,9.70
2023-03-28T12:42:23.557Z,9.60
2023-03-28T12:45:13.748Z,9.60
2023-03-28T12:47:48.495Z,9.80
2023-03-28T12:50:25.420Z,9.80
2023-03-28T12:52:53.100Z,10.00
2023-03-28T12:55:25.677Z,10.00
2023-03-28T12:57:54.711Z,9.90
2023-03-28T13:00:39.763Z,10.00
2023-03-28T13:03:25.461Z,10.00
2023-03-28T13:06:12.063Z,9.90
2023-03-28T13:09:06.619Z,10.00
2023-03-28T13:12:00.118Z,10.00
2023-03-28T13:14:37.509Z,10.00
2023-03-28T13:17:23.617Z,10.00
2023-03-28T13:20:28.945Z,10.00
2023-03-28T13:23:02.286Z,10.00
2023-03-28T13:25:35.855Z,10.00
2023-03-28T13:28:02.468Z,9.90
2023-03-28T13:30:31.444Z,9.90
2023-03-28T13:33:00.896Z,9.90
2023-03-28T13:35:50.091Z,9.90
2023-03-28T13:38:25.611Z,10.00
2023-03-28T13:40:55.829Z,9.90
2023-03-28T13:43:45.169Z,9.90
2023-03-28T13:46:13.056Z,9.90
2023-03-28T13:49:06.162Z,9.80
2023-03-28T13:52:14.758Z,9.80
2023-03-28T13:54:41.543Z,9.80
2023-03-28T13:57:16.107Z,9.80
2023-03-28T13:59:58.740Z,9.80
2023-03-28T14:03:03.739Z,9.80
2023-03-28T14:05:35.500Z,9.80
2023-03-28T14:08:30.560Z,9.80
2023-03-28T14:10:57.459Z,9.80
2023-03-28T14:13:30.246Z,9.80
2023-03-28T14:15:59.850Z,9.80
2023-03-28T14:18:37.792Z,9.80
2023-03-28T14:21:07.647Z,9.80
2023-03-28T14:23:40.299Z,9.70
2023-03-28T14:26:20.583Z,9.80
2023-03-28T14:28:47.567Z,9.80
2023-03-28T14:31:28.510Z,9.80
2023-03-28T14:33:59.687Z,9.70
2023-03-28T14:36:31.325Z,9.70
2023-03-28T14:39:14.958Z,9.70
2023-03-28T14:41:42.806Z,9.60
2023-03-28T14:44:09.428Z,9.60
2023-03-28T14:46:36.420Z,9.70
2023-03-28T14:49:06.322Z,9.70
2023-03-28T14:51:44.998Z,9.60
2023-03-28T14:54:15.690Z,9.60
2023-03-28T14:56:45.035Z,9.60
2023-03-28T14:59:16.145Z,9.70
2023-03-28T15:01:46.287Z,9.60
2023-03-28T15:04:13.627Z,9.60
2023-03-28T15:06:40.423Z,9.60
2023-03-28T15:09:31.426Z,9.60
2023-03-28T15:12:01.855Z,9.60
2023-03-28T15:14:34.524Z,9.50
2023-03-28T15:17:01.489Z,9.50
2023-03-28T15:19:38.347Z,9.50
2023-03-28T15:22:10.160Z,9.60
2023-03-28T15:24:38.392Z,9.50
2023-03-28T15:27:07.464Z,9.60
2023-03-28T15:29:39.267Z,9.60
2023-03-28T15:32:12.413Z,9.50
2023-03-28T15:35:02.105Z,9.50
2023-03-28T15:37:28.782Z,9.50
2023-03-28T15:40:18.539Z,9.50
2023-03-28T15:42:49.887Z,9.50
2023-03-28T15:45:19.272Z,9.50
2023-03-28T15:47:53.418Z,9.40
2023-03-28T15:50:45.080Z,9.40
2023-03-28T15:53:14.911Z,9.30
2023-03-28T15:55:43.354Z,9.30
2023-03-28T15:58:14.617Z,9.40
2023-03-28T16:00:49.183Z,9.30
2023-03-28T16:03:21.769Z,9.20
2023-03-28T16:06:04.561Z,9.30
2023-03-28T16:08:41.132Z,9.30
2023-03-28T16:11:15.651Z,9.30
2023-03-28T16:13:42.428Z,9.30
2023-03-28T16:16:16.380Z,9.30
2023-03-28T16:18:44.936Z,9.30
2023-03-28T16:21:11.601Z,9.20
2023-03-28T16:23:38.317Z,9.20
2023-03-28T16:26:06.984Z,9.20
2023-03-28T16:28:34.014Z,9.10
2023-03-28T16:31:00.573Z,9.10
2023-03-28T16:33:27.246Z,9.10
2023-03-28T16:35:54.126Z,9.20
2023-03-28T16:38:21.780Z,9.20
2023-03-28T16:40:48.943Z,9.20
2023-03-28T16:43:16.630Z,9.20
2023-03-28T16:45:50.157Z,9.20
2023-03-28T16:48:17.272Z,9.20
2023-03-28T16:51:07.198Z,9.20
2023-03-28T16:53:40.539Z,9.10
2023-03-28T16:56:09.147Z,9.20
2023-03-28T16:58:35.845Z,9.10
2023-03-28T17:01:11.253Z,9.20
2023-03-28T17:03:38.091Z,9.10
2023-03-28T17:06:08.108Z,9.10
2023-03-28T17:08:36.005Z,9.10
2023-03-28T17:11:06.241Z,9.10
2023-03-28T17:13:34.228Z,9.10
2023-03-28T17:16:01.374Z,9.10
2023-03-28T17:18:29.855Z,9.10
2023-03-28T17:21:01.959Z,9.10
2023-03-28T17:23:28.905Z,9.10
2023-03-28T17:25:56.692Z,9.10
2023-03-28T17:28:24.457Z,9.10
2023-03-28T17:30:51.374Z,9.10
2023-03-28T17:33:18.354Z,9.10
2023-03-28T17:35:45.127Z,9.10
2023-03-28T17:38:12.012Z,9.00
2023-03-28T17:40:40.923Z,9.00
2023-03-28T17:43:08.425Z,9.00
2023-03-28T17:45:35.136Z,9.00
2023-03-28T17:48:01.845Z,9.00
2023-03-28T17:50:28.570Z,9.00
2023-03-28T17:52:55.232Z,9.00
2023-03-28T17:55:22.214Z,9.00
2023-03-28T17:57:48.815Z,9.00
2023-03-28T18:00:16.443Z,9.00
2023-03-28T18:02:46.361Z,9.00
2023-03-28T18:05:13.376Z,9.00
2023-03-28T18:07:40.388Z,8.90
2023-03-28T18:10:08.936Z,8.90
2023-03-28T18:12:36.740Z,8.90
2023-03-28T18:15:04.540Z,8.90
2023-03-28T18:17:31.207Z,8.90
2023-03-28T18:19:58.971Z,8.90
2023-03-28T18:22:25.704Z,8.90
2023-03-28T18:24:52.367Z,8.80
2023-03-28T18:27:19.037Z,8.90
2023-03-28T18:29:47.617Z,8.80
2023-03-28T18:32:14.246Z,8.80
2023-03-28T18:34:41.490Z,8.80
2023-03-28T18:37:08.160Z,8.70
2023-03-28T18:39:35.795Z,8.70
2023-03-28T18:42:04.215Z,8.70
2023-03-28T18:44:30.822Z,8.70
2023-03-28T18:46:58.365Z,8.70
2023-03-28T18:49:25.522Z,8.60
2023-03-28T18:51:52.626Z,8.60
2023-03-28T18:54:20.073Z,8.60
2023-03-28T18:56:47.090Z,8.60
2023-03-28T18:59:13.974Z,8.60
2023-03-28T19:01:44.428Z,8.60
2023-03-28T19:04:11.941Z,8.60
2023-03-28T19:06:39.772Z,8.50
2023-03-28T19:09:06.396Z,8.50
2023-03-28T19:11:33.031Z,8.50
2023-03-28T19:13:59.730Z,8.50
2023-03-28T19:16:26.848Z,8.50
2023-03-28T19:18:53.491Z,8.50
2023-03-28T19:21:20.210Z,8.50
2023-03-28T19:23:48.653Z,8.40
2023-03-28T19:26:15.915Z,8.40
2023-03-28T19:28:42.634Z,8.40
2023-03-28T19:31:11.593Z,8.30
2023-03-28T19:33:42.569Z,8.30
2023-03-28T19:36:10.869Z,8.30
2023-03-28T19:38:38.846Z,8.30
2023-03-28T19:41:10.379Z,8.30
2023-03-28T19:43:37.903Z,8.30
2023-03-28T19:46:07.723Z,8.30
2023-03-28T19:48:35.935Z,8.30
2023-03-28T19:51:03.023Z,8.30
2023-03-28T19:53:29.741Z,8.30
2023-03-28T19:55:59.055Z,8.20
2023-03-28T19:58:27.172Z,8.20
2023-03-28T20:00:55.937Z,8.20
2023-03-28T20:03:22.741Z,8.20
2023-03-28T20:05:49.431Z,8.20
2023-03-28T20:08:18.323Z,8.20
2023-03-28T20:10:47.422Z,8.20
2023-03-28T20:13:14.563Z,8.20
2023-03-28T20:15:43.049Z,8.10
2023-03-28T20:18:19.664Z,8.10
2023-03-28T20:20:54.982Z,8.10
2023-03-28T20:23:23.744Z,8.10
2023-03-28T20:25:52.320Z,8.10
2023-03-28T20:28:21.016Z,8.10
2023-03-28T20:30:47.740Z,8.10
2023-03-28T20:33:14.326Z,8.10
2023-03-28T20:35:41.964Z,8.10
2023-03-28T20:38:09.830Z,8.10
2023-03-28T20:40:40.340Z,8.00
2023-03-28T20:43:10.130Z,8.10
2023-03-28T20:45:46.103Z,8.00
2023-03-28T20:48:16.385Z,8.00
2023-03-28T20:50:46.678Z,8.00
2023-03-28T20:53:13.359Z,8.00
2023-03-28T20:55:40.481Z,8.00
2023-03-28T20:58:08.784Z,8.00
2023-03-28T21:00:35.871Z,8.00
2023-03-28T21:03:03.779Z,8.00
2023-03-28T21:05:31.644Z,8.00
2023-03-28T21:07:59.214Z,8.00
2023-03-28T21:10:26.747Z,8.00
2023-03-28T21:12:53.330Z,8.00
2023-03-28T21:15:19.910Z,8.00
2023-03-28T21:17:49.505Z,8.00
2023-03-28T21:20:16.505Z,8.00
2023-03-28T21:22:43.129Z,8.00
2023-03-28T21:25:10.666Z,7.90
2023-03-28T21:27:37.417Z,8.00
2023-03-28T21:30:07.982Z,8.00
2023-03-28T21:32:35.366Z,7.90
2023-03-28T21:35:04.181Z,7.90
2023-03-28T21:37:31.096Z,7.90
2023-03-28T21:39:57.697Z,7.90
2023-03-28T21:42:24.871Z,7.90
2023-03-28T21:44:52.048Z,7.90
2023-03-28T21:47:18.706Z,7.90
2023-03-28T21:49:46.226Z,7.90
2023-03-28T21:52:13.231Z,7.90
2023-03-28T21:54:40.375Z,7.90
2023-03-28T21:57:07.044Z,7.90
2023-03-28T21:59:33.623Z,7.90
2023-03-28T22:02:00.618Z,7.90
2023-03-28T22:04:28.432Z,7.90
2023-03-28T22:06:55.694Z,7.90
2023-03-28T22:09:22.439Z,7.90
2023-03-28T22:11:49.060Z,7.90
2023-03-28T22:14:15.619Z,7.90
2023-03-28T22:16:42.699Z,7.90
2023-03-28T22:19:09.941Z,7.90
2023-03-28T22:21:37.244Z,7.90
2023-03-28T22:24:10.203Z,7.90
2023-03-28T22:26:36.816Z,7.90
2023-03-28T22:29:03.486Z,7.90
2023-03-28T22:31:30.715Z,7.90
2023-03-28T22:33:57.400Z,7.90
2023-03-28T22:36:24.248Z,7.90
2023-03-28T22:38:51.903Z,7.80
2023-03-28T22:41:18.555Z,7.80
2023-03-28T22:43:45.184Z,7.80
2023-03-28T22:46:16.532Z,7.90
2023-03-28T22:48:44.036Z,7.90
2023-03-28T22:51:12.223Z,7.90
2023-03-28T22:53:40.133Z,7.90
2023-03-28T22:56:07.516Z,7.80
2023-03-28T22:58:34.463Z,7.80
2023-03-28T23:01:01.206Z,7.90
2023-03-28T23:03:28.315Z,7.90
2023-03-28T23:05:55.271Z,7.80
2023-03-28T23:08:22.399Z,7.80
2023-03-28T23:10:49.193Z,7.80
2023-03-28T23:13:16.514Z,7.80
2023-03-28T23:15:43.795Z,7.80
2023-03-28T23:18:11.007Z,7.80
2023-03-28T23:20:38.311Z,7.80
2023-03-28T23:23:05.022Z,7.80
2023-03-28T23:25:32.936Z,7.90
2023-03-28T23:27:59.618Z,7.90
2023-03-28T23:30:26.254Z,7.90
2023-03-28T23:32:52.997Z,7.90
2023-03-28T23:35:19.704Z,7.80
2023-03-28T23:37:46.735Z,7.90
2023-03-28T23:40:16.561Z,7.90
2023-03-28T23:42:44.172Z,7.90
2023-03-28T23:45:12.936Z,7.90
2023-03-28T23:47:39.553Z,7.80
2023-03-28T23:50:06.814Z,7.80
2023-03-28T23:52:33.612Z,7.90
2023-03-28T23:55:00.696Z,7.80
2023-03-28T23:57:28.638Z,7.90
2023-03-28T23:59:56.504Z,7.90
